Time;durP1;ratioP1;P1;durP2;ratioP2;P2;SDS_P1;SDS_P2;PMS_P1;PMS_P2;Temp;Humidity;BMP_temperature;BMP_pressure;BME280_temperature;BME280_humidity;BME280_pressure;Samples;Min_cycle;Max_cycle;Signal;HPM_P1;HPM_P2
2022/05/11 00:00:52;;;;;;;9.03;3.90;;;;;;;;;;2062451;28;20112;-48
2022/05/11 00:01:53;;;;;;;12.95;5.40;;;;;;;;;;2057094;28;20113;-49
2022/05/11 00:02:54;;;;;;;9.32;4.18;;;;;;;;;;2057158;28;20061;-48
2022/05/11 00:03:56;;;;;;;8.98;4.28;;;;;;;;;;2057055;28;20050;-48
2022/05/11 00:04:57;;;;;;;8.07;4.50;;;;;;;;;;2057155;28;20055;-48
2022/05/11 00:05:59;;;;;;;11.70;4.60;;;;;;;;;;2057060;28;20468;-51
2022/05/11 00:07:00;;;;;;;11.98;5.80;;;;;;;;;;2056998;28;20054;-48
2022/05/11 00:08:01;;;;;;;6.10;3.72;;;;;;;;;;2057134;28;20050;-48
2022/05/11 00:09:03;;;;;;;10.60;4.40;;;;;;;;;;2057089;28;20125;-48
2022/05/11 00:10:11;;;;;;;9.93;4.10;;;;;;;;;;2057093;28;20077;-48
2022/05/11 00:11:12;;;;;;;7.13;4.65;;;;;;;;;;2057154;28;20053;-48
2022/05/11 00:12:13;;;;;;;10.68;4.25;;;;;;;;;;2057024;28;20051;-49
2022/05/11 00:13:14;;;;;;;6.43;3.70;;;;;;;;;;2057049;28;20077;-48
2022/05/11 00:14:15;;;;;;;9.18;4.72;;;;;;;;;;2056997;28;20468;-48
2022/05/11 00:15:17;;;;;;;9.30;3.97;;;;;;;;;;2060129;28;20066;-48
2022/05/11 00:16:18;;;;;;;;;;;;;;;;;;2065498;28;20046;-48
2022/05/11 00:17:19;;;;;;;8.75;4.32;;;;;;;;;;2065001;28;19921;-48
2022/05/11 00:18:20;;;;;;;8.20;3.92;;;;;;;;;;2064958;28;20479;-48
2022/05/11 00:19:21;;;;;;;11.98;3.83;;;;;;;;;;2049039;28;20083;-48
2022/05/11 00:20:23;;;;;;;9.52;4.63;;;;;;;;;;2049011;28;20497;-48
2022/05/11 00:21:24;;;;;;;9.13;3.50;;;;;;;;;;2049083;28;20342;-47
2022/05/11 00:22:25;;;;;;;13.82;5.05;;;;;;;;;;2048939;28;20412;-48
2022/05/11 00:23:27;;;;;;;6.40;3.55;;;;;;;;;;2049108;28;20051;-49
2022/05/11 00:24:28;;;;;;;10.00;4.13;;;;;;;;;;2048871;28;20130;-49
2022/05/11 00:25:29;;;;;;;9.13;4.60;;;;;;;;;;2049268;28;20051;-48
2022/05/11 00:26:30;;;;;;;7.15;3.97;;;;;;;;;;2049020;28;20368;-48
2022/05/11 00:27:31;;;;;;;8.40;3.90;;;;;;;;;;2049052;28;20055;-48
2022/05/11 00:28:33;;;;;;;10.00;5.15;;;;;;;;;;2048939;28;20126;-48
2022/05/11 00:29:34;;;;;;;9.98;4.40;;;;;;;;;;2048992;28;20434;-48
2022/05/11 00:30:35;;;;;;;9.60;4.35;;;;;;;;;;2049077;28;20057;-48
2022/05/11 00:31:36;;;;;;;10.35;4.70;;;;;;;;;;2049141;28;20278;-50
2022/05/11 00:32:37;;;;;;;9.30;4.63;;;;;;;;;;2049024;28;20058;-47
2022/05/11 00:33:38;;;;;;;11.63;4.97;;;;;;;;;;2048853;28;20051;-48
2022/05/11 00:34:40;;;;;;;9.53;3.97;;;;;;;;;;2049063;28;20047;-48
2022/05/11 00:35:41;;;;;;;10.10;4.53;;;;;;;;;;2048904;28;20133;-48
2022/05/11 00:36:43;;;;;;;10.48;4.80;;;;;;;;;;2048945;28;20489;-48
2022/05/11 00:37:44;;;;;;;9.20;4.03;;;;;;;;;;2048814;28;20051;-48
2022/05/11 00:38:47;;;;;;;10.17;4.50;;;;;;;;;;2048892;28;20086;-48
2022/05/11 00:39:48;;;;;;;9.80;4.10;;;;;;;;;;2048821;28;20511;-48
2022/05/11 00:40:50;;;;;;;11.27;4.28;;;;;;;;;;2049002;28;20047;-48
2022/05/11 00:41:51;;;;;;;8.00;4.30;;;;;;;;;;2048802;28;20055;-48
2022/05/11 00:42:53;;;;;;;8.98;4.05;;;;;;;;;;2049087;28;20051;-48
2022/05/11 00:43:55;;;;;;;12.88;4.50;;;;;;;;;;2048777;28;20051;-48
2022/05/11 00:44:56;;;;;;;8.50;3.92;;;;;;;;;;2048930;28;20134;-48
2022/05/11 00:46:02;;;;;;;9.07;5.10;;;;;;;;;;2048824;28;20138;-48
2022/05/11 00:47:05;;;;;;;9.93;4.38;;;;;;;;;;2048846;28;20055;-48
2022/05/11 00:49:34;;;;;;;8.38;3.95;;;;;;;;;;2048659;29;20584;-47
2022/05/11 00:50:36;;;;;;;8.05;3.92;;;;;;;;;;2048954;28;20138;-49
2022/05/11 00:51:39;;;;;;;8.32;4.53;;;;;;;;;;2048945;28;20047;-48
2022/05/11 00:52:43;;;;;;;9.68;4.20;;;;;;;;;;2048863;28;20043;-48
2022/05/11 00:53:48;;;;;;;8.80;4.35;;;;;;;;;;2048687;28;20047;-48
2022/05/11 00:54:51;;;;;;;13.60;4.10;;;;;;;;;;2048844;28;20058;-50
2022/05/11 00:55:55;;;;;;;9.32;4.20;;;;;;;;;;2048765;28;20051;-48
2022/05/11 00:56:59;;;;;;;10.93;5.20;;;;;;;;;;2050057;28;20412;-48
2022/05/11 00:58:02;;;;;;;9.80;4.57;;;;;;;;;;2056690;28;20584;-47
2022/05/11 00:59:06;;;;;;;11.00;4.70;;;;;;;;;;2056543;28;20055;-49
2022/05/11 01:00:08;;;;;;;11.23;4.40;;;;;;;;;;2056763;28;20134;-49
2022/05/11 01:01:09;;;;;;;11.05;4.07;;;;;;;;;;2056658;28;20054;-47
2022/05/11 01:02:11;;;;;;;6.80;3.92;;;;;;;;;;2056661;28;20102;-48
2022/05/11 01:03:13;;;;;;;10.20;5.68;;;;;;;;;;2056770;28;20455;-48
2022/05/11 01:04:17;;;;;;;8.68;4.50;;;;;;;;;;2056521;28;20050;-48
2022/05/11 01:05:18;;;;;;;9.80;4.82;;;;;;;;;;2055749;28;20059;-48
2022/05/11 01:06:21;;;;;;;12.13;4.20;;;;;;;;;;2056677;28;20083;-48
2022/05/11 01:07:22;;;;;;;10.57;5.35;;;;;;;;;;2056781;28;20854;-48
2022/05/11 01:08:24;;;;;;;13.98;4.55;;;;;;;;;;2056899;28;20042;-49
2022/05/11 01:09:25;;;;;;;9.88;4.05;;;;;;;;;;2056586;28;20053;-47
2022/05/11 01:10:28;;;;;;;8.15;3.90;;;;;;;;;;2056680;28;20049;-48
2022/05/11 01:11:29;;;;;;;10.98;5.43;;;;;;;;;;2059465;28;20046;-47
2022/05/11 01:12:34;;;;;;;14.57;4.90;;;;;;;;;;2064906;28;20060;-48
2022/05/11 01:13:36;;;;;;;10.73;5.38;;;;;;;;;;2064763;28;20054;-47
2022/05/11 01:14:39;;;;;;;13.13;4.38;;;;;;;;;;2064756;28;20060;-48
2022/05/11 01:15:40;;;;;;;10.40;4.60;;;;;;;;;;2064734;28;20133;-48
2022/05/11 01:16:42;;;;;;;8.88;4.10;;;;;;;;;;2064704;28;20568;-48
2022/05/11 01:17:43;;;;;;;9.77;4.72;;;;;;;;;;2064751;28;20054;-48
2022/05/11 01:18:44;;;;;;;11.18;5.22;;;;;;;;;;2061181;28;20137;-48
2022/05/11 01:19:46;;;;;;;10.05;5.05;;;;;;;;;;2056722;28;20061;-48
2022/05/11 01:20:47;;;;;;;10.27;4.10;;;;;;;;;;2056611;28;20053;-48
2022/05/11 01:21:51;;;;;;;8.85;4.55;;;;;;;;;;2056606;28;20492;-48
2022/05/11 01:22:57;;;;;;;11.45;4.97;;;;;;;;;;2056565;28;20412;-48
2022/05/11 01:24:08;;;;;;;11.02;5.38;;;;;;;;;;2056584;28;20382;-48
2022/05/11 01:25:10;;;;;;;11.68;4.15;;;;;;;;;;2056520;28;20101;-48
2022/05/11 01:26:15;;;;;;;12.80;4.25;;;;;;;;;;2056711;28;20046;-48
2022/05/11 01:27:31;;;;;;;9.77;4.85;;;;;;;;;;2056568;28;20053;-48
2022/05/11 01:28:32;;;;;;;9.07;4.47;;;;;;;;;;2056692;28;20078;-47
2022/05/11 01:29:33;;;;;;;10.20;4.75;;;;;;;;;;2056605;28;20481;-48
2022/05/11 01:30:35;;;;;;;11.93;4.07;;;;;;;;;;2056745;28;20066;-48
2022/05/11 01:31:36;;;;;;;8.98;4.43;;;;;;;;;;2056600;28;20081;-47
2022/05/11 01:32:37;;;;;;;8.35;4.13;;;;;;;;;;2056648;28;20489;-48
2022/05/11 01:33:41;;;;;;;10.23;4.82;;;;;;;;;;2056549;28;20051;-49
2022/05/11 01:34:42;;;;;;;12.55;5.75;;;;;;;;;;2056548;28;20061;-48
2022/05/11 01:35:47;;;;;;;9.98;3.92;;;;;;;;;;2056594;28;20130;-48
2022/05/11 01:36:49;;;;;;;11.48;5.32;;;;;;;;;;2056769;28;20420;-48
2022/05/11 01:37:56;;;;;;;13.40;5.30;;;;;;;;;;2056516;28;20055;-48
2022/05/11 01:38:59;;;;;;;12.73;4.55;;;;;;;;;;2056504;28;20058;-49
2022/05/11 01:40:00;;;;;;;10.35;4.80;;;;;;;;;;2056598;28;20053;-48
2022/05/11 01:41:02;;;;;;;9.73;3.90;;;;;;;;;;2056470;28;20047;-48
2022/05/11 01:42:03;;;;;;;11.13;5.18;;;;;;;;;;2056463;28;20141;-48
2022/05/11 01:43:05;;;;;;;12.07;5.10;;;;;;;;;;2056440;28;20412;-48
2022/05/11 01:44:07;;;;;;;12.10;4.63;;;;;;;;;;2056552;28;20054;-47
2022/05/11 01:45:08;;;;;;;12.52;5.25;;;;;;;;;;2056460;28;20469;-49
2022/05/11 01:46:10;;;;;;;5.70;3.38;;;;;;;;;;2056582;28;20073;-48
2022/05/11 01:47:12;;;;;;;9.65;4.60;;;;;;;;;;2056421;28;20059;-48
2022/05/11 01:48:13;;;;;;;8.65;4.18;;;;;;;;;;2056484;28;20571;-49
2022/05/11 01:49:14;;;;;;;11.17;4.57;;;;;;;;;;2056481;28;20066;-48
2022/05/11 01:50:15;;;;;;;11.60;4.32;;;;;;;;;;2056569;28;20133;-49
2022/05/11 01:51:17;;;;;;;10.07;4.10;;;;;;;;;;2056628;28;20077;-48
2022/05/11 01:52:18;;;;;;;10.10;5.05;;;;;;;;;;2056399;28;20053;-48
2022/05/11 01:53:19;;;;;;;7.60;4.07;;;;;;;;;;2056550;28;20055;-47
2022/05/11 01:54:21;;;;;;;10.15;4.80;;;;;;;;;;2056324;28;20507;-48
2022/05/11 01:55:21;;;;;;;8.27;4.57;;;;;;;;;;2056703;28;20130;-48
2022/05/11 01:56:24;;;;;;;11.30;4.93;;;;;;;;;;2056354;28;20496;-48
2022/05/11 01:57:25;;;;;;;11.52;4.82;;;;;;;;;;2056383;28;20538;-48
2022/05/11 01:58:26;;;;;;;10.45;4.50;;;;;;;;;;2056287;28;20058;-48
2022/05/11 01:59:27;;;;;;;9.48;4.07;;;;;;;;;;2056418;28;20101;-48
2022/05/11 02:00:28;;;;;;;7.80;4.25;;;;;;;;;;2056482;28;20051;-48
2022/05/11 02:01:30;;;;;;;9.10;3.92;;;;;;;;;;2056532;28;20050;-48
2022/05/11 02:02:31;;;;;;;9.98;4.65;;;;;;;;;;2056504;28;20511;-48
2022/05/11 02:03:33;;;;;;;10.65;5.35;;;;;;;;;;2056340;28;20614;-49
2022/05/11 02:08:36;;;;;;;9.13;4.50;;;;;;;;;;2048467;28;20141;-58
2022/05/11 02:09:37;;;;;;;10.30;4.65;;;;;;;;;;2048392;28;20484;-59
2022/05/11 02:10:38;;;;;;;7.80;4.13;;;;;;;;;;2048554;28;20179;-59
2022/05/11 02:11:40;;;;;;;9.57;4.78;;;;;;;;;;2048519;28;20134;-59
2022/05/11 02:12:41;;;;;;;12.80;4.60;;;;;;;;;;2048477;28;20051;-58
2022/05/11 02:13:44;;;;;;;10.80;4.60;;;;;;;;;;2048565;28;20055;-59
2022/05/11 02:14:45;;;;;;;16.77;5.70;;;;;;;;;;2048303;28;20113;-59
2022/05/11 02:15:48;;;;;;;8.63;4.45;;;;;;;;;;2048542;28;20134;-59
2022/05/11 02:16:49;;;;;;;10.82;5.07;;;;;;;;;;2049336;28;20047;-59
2022/05/11 02:17:50;;;;;;;9.27;4.63;;;;;;;;;;2049842;28;20296;-59
2022/05/11 02:18:52;;;;;;;8.80;4.82;;;;;;;;;;2053557;28;20332;-58
2022/05/11 02:19:53;;;;;;;8.73;4.28;;;;;;;;;;2057885;28;20050;-59
2022/05/11 02:20:54;;;;;;;10.85;4.68;;;;;;;;;;2057727;28;20576;-59
2022/05/11 02:21:55;;;;;;;8.43;4.35;;;;;;;;;;2057830;28;20086;-59
2022/05/11 02:22:56;;;;;;;11.02;5.40;;;;;;;;;;2057776;28;20130;-58
2022/05/11 02:23:58;;;;;;;9.40;4.43;;;;;;;;;;2057640;28;20046;-59
2022/05/11 02:24:58;;;;;;;10.65;4.05;;;;;;;;;;2057813;28;20078;-58
2022/05/11 02:26:00;;;;;;;11.60;4.60;;;;;;;;;;2057746;28;20151;-58
2022/05/11 02:27:02;;;;;;;8.05;4.00;;;;;;;;;;2057817;28;20126;-58
2022/05/11 02:28:04;;;;;;;9.32;4.55;;;;;;;;;;2057725;28;20129;-59
2022/05/11 02:29:05;;;;;;;7.20;4.18;;;;;;;;;;2057735;28;20129;-59
2022/05/11 02:30:09;;;;;;;10.73;4.93;;;;;;;;;;2057489;28;20493;-58
2022/05/11 02:31:10;;;;;;;8.20;4.53;;;;;;;;;;2057669;28;20050;-59
2022/05/11 02:32:11;;;;;;;11.70;5.10;;;;;;;;;;2057795;28;20130;-59
2022/05/11 02:33:12;;;;;;;7.63;4.60;;;;;;;;;;2057853;28;20054;-59
2022/05/11 02:35:12;;;;;;;10.80;4.53;;;;;;;;;;2057540;28;20516;-58
2022/05/11 02:35:36;;;;;;;12.25;4.95;;;;;;;;;;2057656;28;20520;-59
2022/05/11 02:36:37;;;;;;;14.20;5.25;;;;;;;;;;2057592;28;20054;-58
2022/05/11 02:37:38;;;;;;;11.52;5.30;;;;;;;;;;2057951;28;20125;-49
2022/05/11 02:38:40;;;;;;;11.95;4.90;;;;;;;;;;2057431;28;20062;-48
2022/05/11 02:39:41;;;;;;;10.13;4.60;;;;;;;;;;2057629;28;20532;-48
2022/05/11 02:40:43;;;;;;;12.23;4.90;;;;;;;;;;2057651;28;20053;-51
2022/05/11 02:41:44;;;;;;;12.60;5.60;;;;;;;;;;2057529;28;20054;-48
2022/05/11 02:42:46;;;;;;;6.97;4.10;;;;;;;;;;2057592;28;20102;-48
2022/05/11 02:43:47;;;;;;;10.70;4.70;;;;;;;;;;2057484;28;20386;-48
2022/05/11 02:44:48;;;;;;;10.55;4.80;;;;;;;;;;2057569;28;20085;-47
2022/05/11 02:45:50;;;;;;;11.57;4.57;;;;;;;;;;2057877;28;20054;-59
2022/05/11 02:46:51;;;;;;;10.70;4.53;;;;;;;;;;2057716;28;20106;-59
2022/05/11 02:47:53;;;;;;;13.40;5.00;;;;;;;;;;2057655;28;20463;-58
2022/05/11 02:48:53;;;;;;;14.60;6.05;;;;;;;;;;2057784;28;20054;-59
2022/05/11 02:49:55;;;;;;;10.57;5.70;;;;;;;;;;2057635;28;20053;-59
2022/05/11 02:50:57;;;;;;;9.50;5.45;;;;;;;;;;2057669;28;20043;-58
2022/05/11 02:51:58;;;;;;;12.13;4.70;;;;;;;;;;2057534;28;20065;-58
2022/05/11 02:52:59;;;;;;;11.38;5.38;;;;;;;;;;2057462;28;20071;-58
2022/05/11 02:54:01;;;;;;;9.57;3.90;;;;;;;;;;2057495;28;20050;-58
2022/05/11 02:55:02;;;;;;;12.45;4.50;;;;;;;;;;2057697;28;20400;-48
2022/05/11 02:56:03;;;;;;;11.65;5.28;;;;;;;;;;2057607;28;20129;-48
2022/05/11 02:57:04;;;;;;;14.60;5.85;;;;;;;;;;2057416;28;20050;-49
2022/05/11 02:58:13;;;;;;;10.40;5.05;;;;;;;;;;2057434;28;20556;-48
2022/05/11 02:59:14;;;;;;;9.18;4.55;;;;;;;;;;2057417;28;20050;-48
2022/05/11 03:00:16;;;;;;;10.30;4.93;;;;;;;;;;2057590;28;20074;-48
2022/05/11 03:01:18;;;;;;;13.20;5.05;;;;;;;;;;2057401;28;20488;-48
2022/05/11 03:02:20;;;;;;;11.15;4.53;;;;;;;;;;2057528;28;20045;-49
2022/05/11 03:03:22;;;;;;;;;;;;;;;;;;2058066;28;20136;-48
2022/05/11 03:04:23;;;;;;;7.90;4.20;;;;;;;;;;2063359;28;19999;-48
2022/05/11 03:05:24;;;;;;;15.88;5.90;;;;;;;;;;2065613;28;20042;-48
2022/05/11 03:06:25;;;;;;;9.70;4.93;;;;;;;;;;2065538;28;20412;-48
2022/05/11 03:07:26;;;;;;;9.65;4.32;;;;;;;;;;2065506;28;20141;-48
2022/05/11 03:08:29;;;;;;;9.13;4.95;;;;;;;;;;2065505;28;20077;-49
2022/05/11 03:09:30;;;;;;;9.27;4.60;;;;;;;;;;2065379;28;20141;-49
2022/05/11 03:10:31;;;;;;;14.93;5.30;;;;;;;;;;2065488;28;20050;-47
2022/05/11 03:11:32;;;;;;;10.15;5.03;;;;;;;;;;2065555;28;20051;-49
2022/05/11 03:12:33;;;;;;;12.00;4.68;;;;;;;;;;2065409;28;20120;-50
2022/05/11 03:13:35;;;;;;;11.40;4.70;;;;;;;;;;2065586;28;20050;-48
2022/05/11 03:14:36;;;;;;;10.60;5.07;;;;;;;;;;2065598;28;20061;-48
2022/05/11 03:15:37;;;;;;;17.80;5.57;;;;;;;;;;2065426;28;20407;-50
2022/05/11 03:16:38;;;;;;;8.90;3.90;;;;;;;;;;2065570;28;20046;-50
2022/05/11 03:17:39;;;;;;;11.00;5.07;;;;;;;;;;2065671;28;20046;-50
2022/05/11 03:18:41;;;;;;;13.00;4.75;;;;;;;;;;2062491;28;20066;-48
2022/05/11 03:19:42;;;;;;;13.50;4.53;;;;;;;;;;2057379;28;20528;-49
2022/05/11 03:20:43;;;;;;;9.60;4.70;;;;;;;;;;2057329;28;20058;-50
2022/05/11 03:21:44;;;;;;;8.93;4.60;;;;;;;;;;2057328;28;20439;-50
2022/05/11 03:22:45;;;;;;;12.35;4.68;;;;;;;;;;2057505;28;20330;-49
2022/05/11 03:23:46;;;;;;;9.88;4.45;;;;;;;;;;2057428;28;20362;-50
2022/05/11 03:24:47;;;;;;;9.25;4.03;;;;;;;;;;2057334;28;20050;-48
2022/05/11 03:25:48;;;;;;;12.13;4.85;;;;;;;;;;2057462;28;20134;-51
2022/05/11 03:26:49;;;;;;;9.80;5.22;;;;;;;;;;2057288;28;20061;-51
2022/05/11 03:27:50;;;;;;;9.95;4.13;;;;;;;;;;2056853;28;20061;-49
2022/05/11 03:28:52;;;;;;;11.20;4.57;;;;;;;;;;2057099;28;20419;-59
2022/05/11 03:29:53;;;;;;;;;;;;;;;;;;2057841;28;20043;-59
2022/05/11 03:30:55;;;;;;;11.35;4.68;;;;;;;;;;2057275;28;19928;-58
2022/05/11 03:34:37;;;;;;;11.32;5.05;;;;;;;;;;2040284;29;20063;-58
2022/05/11 03:35:38;;;;;;;17.23;6.18;;;;;;;;;;2057331;28;20055;-59
2022/05/11 03:36:40;;;;;;;13.90;6.20;;;;;;;;;;2057328;28;20053;-59
2022/05/11 03:37:41;;;;;;;;;;;;;;;;;;2057695;28;20057;-58
2022/05/11 03:38:42;;;;;;;9.13;4.20;;;;;;;;;;2057107;28;20345;-58
2022/05/11 03:39:43;;;;;;;10.63;4.15;;;;;;;;;;2057340;28;20133;-59
2022/05/11 03:40:44;;;;;;;9.05;4.05;;;;;;;;;;2057449;28;20050;-58
2022/05/11 03:41:45;;;;;;;11.32;4.00;;;;;;;;;;2057328;28;20138;-58
2022/05/11 03:42:47;;;;;;;10.30;4.78;;;;;;;;;;2057374;28;20543;-59
2022/05/11 03:43:48;;;;;;;11.75;6.07;;;;;;;;;;2057201;28;20057;-59
2022/05/11 03:44:50;;;;;;;8.32;4.50;;;;;;;;;;2057224;28;20442;-59
2022/05/11 03:45:51;;;;;;;12.48;5.88;;;;;;;;;;2057276;28;20058;-59
2022/05/11 03:46:52;;;;;;;10.43;4.60;;;;;;;;;;2057194;28;20126;-58
2022/05/11 03:47:53;;;;;;;7.32;4.40;;;;;;;;;;2057183;28;20508;-58
2022/05/11 03:48:54;;;;;;;10.50;4.87;;;;;;;;;;2057095;28;20050;-58
2022/05/11 03:49:55;;;;;;;11.35;4.80;;;;;;;;;;2057189;28;20640;-58
2022/05/11 03:50:56;;;;;;;10.70;4.73;;;;;;;;;;2057226;28;20074;-58
2022/05/11 03:51:57;;;;;;;11.65;4.63;;;;;;;;;;2057149;28;20085;-58
2022/05/11 03:52:59;;;;;;;11.85;5.43;;;;;;;;;;2057243;28;20058;-58
2022/05/11 03:53:59;;;;;;;13.98;4.82;;;;;;;;;;2057061;28;20133;-58
2022/05/11 03:55:01;;;;;;;15.73;5.35;;;;;;;;;;2057330;28;20181;-59
2022/05/11 03:56:02;;;;;;;10.05;4.43;;;;;;;;;;2057161;28;20134;-58
2022/05/11 03:57:04;;;;;;;10.00;4.40;;;;;;;;;;2057110;28;20448;-58
2022/05/11 03:58:05;;;;;;;13.85;5.85;;;;;;;;;;2057164;28;20046;-59
2022/05/11 03:59:06;;;;;;;10.00;4.60;;;;;;;;;;2057128;28;20654;-58
2022/05/11 04:00:10;;;;;;;12.13;5.97;;;;;;;;;;2059051;28;20364;-59
2022/05/11 04:01:11;;;;;;;13.52;5.95;;;;;;;;;;2065099;28;20392;-59
2022/05/11 04:02:12;;;;;;;11.25;5.00;;;;;;;;;;2065100;28;20756;-58
2022/05/11 04:03:13;;;;;;;18.97;6.47;;;;;;;;;;2065296;28;20251;-58
2022/05/11 04:04:14;;;;;;;12.73;4.90;;;;;;;;;;2065062;28;20880;-58
2022/05/11 04:05:16;;;;;;;7.00;4.43;;;;;;;;;;2065253;28;20050;-58
2022/05/11 04:06:17;;;;;;;9.25;4.53;;;;;;;;;;2065091;28;20562;-58
2022/05/11 04:07:18;;;;;;;12.32;5.13;;;;;;;;;;2065108;28;20042;-59
2022/05/11 04:08:19;;;;;;;8.02;4.35;;;;;;;;;;2065245;28;20053;-59
2022/05/11 04:09:20;;;;;;;7.40;3.90;;;;;;;;;;2065157;28;20074;-58
2022/05/11 04:10:21;;;;;;;8.90;3.60;;;;;;;;;;2065154;28;20411;-58
2022/05/11 04:11:23;;;;;;;4.40;2.60;;;;;;;;;;2065187;28;20046;-58
2022/05/11 04:12:26;;;;;;;5.75;3.28;;;;;;;;;;2065252;28;20052;-58
2022/05/11 04:13:28;;;;;;;5.30;3.13;;;;;;;;;;2065026;28;20125;-58
2022/05/11 04:14:29;;;;;;;8.70;3.90;;;;;;;;;;2064970;28;20050;-58
2022/05/11 04:15:31;;;;;;;6.35;2.67;;;;;;;;;;2065158;28;20138;-58
2022/05/11 04:16:32;;;;;;;9.68;3.05;;;;;;;;;;2065217;28;20196;-58
2022/05/11 04:17:35;;;;;;;7.22;2.45;;;;;;;;;;2065167;28;20053;-58
2022/05/11 04:18:36;;;;;;;7.20;2.85;;;;;;;;;;2062672;28;20137;-58
2022/05/11 04:19:37;;;;;;;7.95;2.75;;;;;;;;;;2057146;28;20101;-59
2022/05/11 04:20:38;;;;;;;3.95;2.33;;;;;;;;;;2057003;28;20051;-58
2022/05/11 04:21:39;;;;;;;4.20;2.38;;;;;;;;;;2057147;28;20047;-58
2022/05/11 04:22:40;;;;;;;4.05;2.08;;;;;;;;;;2057016;28;20059;-58
2022/05/11 04:23:41;;;;;;;5.32;2.20;;;;;;;;;;2056899;28;20490;-58
2022/05/11 04:24:42;;;;;;;4.07;1.50;;;;;;;;;;2056982;28;20055;-58
2022/05/11 04:25:43;;;;;;;5.45;2.10;;;;;;;;;;2057099;28;20074;-58
2022/05/11 04:26:44;;;;;;;5.55;2.20;;;;;;;;;;2057090;28;20275;-58
2022/05/11 04:27:46;;;;;;;3.42;2.20;;;;;;;;;;2057146;28;20062;-58
2022/05/11 04:28:47;;;;;;;5.18;1.95;;;;;;;;;;2057235;28;20082;-59
2022/05/11 04:29:48;;;;;;;4.35;2.05;;;;;;;;;;2057125;28;20174;-59
2022/05/11 04:30:50;;;;;;;5.57;2.43;;;;;;;;;;2057080;28;20109;-59
2022/05/11 04:31:51;;;;;;;;;;;;;;;;;;2057367;28;20043;-59
2022/05/11 04:32:53;;;;;;;4.57;2.13;;;;;;;;;;2056919;28;19922;-58
2022/05/11 04:33:54;;;;;;;2.92;1.95;;;;;;;;;;2056872;28;20232;-59
2022/05/11 04:34:55;;;;;;;7.18;2.15;;;;;;;;;;2057026;28;20074;-58
2022/05/11 04:35:56;;;;;;;3.28;2.03;;;;;;;;;;2056937;28;20086;-58
2022/05/11 04:36:57;;;;;;;4.95;2.15;;;;;;;;;;2056912;28;20047;-59
2022/05/11 04:37:59;;;;;;;7.38;2.20;;;;;;;;;;2057003;28;20051;-59
2022/05/11 04:39:00;;;;;;;3.25;1.83;;;;;;;;;;2056805;28;20055;-58
2022/05/11 04:40:05;;;;;;;5.35;1.90;;;;;;;;;;2056811;28;20413;-59
2022/05/11 04:41:09;;;;;;;6.10;2.22;;;;;;;;;;2056854;28;20408;-59
2022/05/11 04:42:11;;;;;;;5.32;2.13;;;;;;;;;;2056707;28;20440;-59
2022/05/11 04:43:12;;;;;;;5.28;2.28;;;;;;;;;;2056816;28;20058;-59
2022/05/11 04:44:13;;;;;;;3.97;1.90;;;;;;;;;;2056790;28;20412;-58
2022/05/11 04:45:14;;;;;;;4.85;2.10;;;;;;;;;;2057039;28;20046;-59
2022/05/11 04:46:16;;;;;;;6.85;1.98;;;;;;;;;;2056852;28;20097;-59
2022/05/11 04:47:18;;;;;;;4.82;2.15;;;;;;;;;;2056846;28;20050;-58
2022/05/11 04:48:18;;;;;;;2.85;1.45;;;;;;;;;;2057179;28;20130;-59
2022/05/11 04:49:20;;;;;;;5.18;2.05;;;;;;;;;;2056696;28;20490;-59
2022/05/11 04:50:21;;;;;;;3.80;1.98;;;;;;;;;;2056904;28;20043;-59
2022/05/11 04:51:23;;;;;;;4.40;2.03;;;;;;;;;;2056885;28;20074;-59
2022/05/11 04:52:24;;;;;;;7.65;2.63;;;;;;;;;;2056748;28;20054;-59
2022/05/11 04:53:25;;;;;;;4.13;2.27;;;;;;;;;;2056861;28;20397;-59
2022/05/11 04:54:26;;;;;;;6.45;2.20;;;;;;;;;;2056589;28;20049;-59
2022/05/11 04:55:27;;;;;;;3.75;2.30;;;;;;;;;;2056797;28;20525;-59
2022/05/11 04:56:28;;;;;;;3.70;2.00;;;;;;;;;;2059427;28;20056;-59
2022/05/11 04:57:29;;;;;;;6.03;2.17;;;;;;;;;;2064782;28;20054;-59
2022/05/11 04:58:30;;;;;;;5.70;2.38;;;;;;;;;;2064637;28;20054;-59
2022/05/11 04:59:32;;;;;;;4.90;2.20;;;;;;;;;;2064674;28;20061;-59
2022/05/11 05:00:34;;;;;;;5.70;1.98;;;;;;;;;;2064740;28;20533;-59
2022/05/11 05:01:36;;;;;;;3.95;1.73;;;;;;;;;;2064660;28;20460;-59
2022/05/11 05:02:37;;;;;;;4.32;1.92;;;;;;;;;;2064815;28;20047;-59
2022/05/11 05:03:39;;;;;;;6.70;2.47;;;;;;;;;;2064650;28;20053;-59
2022/05/11 05:04:41;;;;;;;4.75;2.13;;;;;;;;;;2064724;28;20488;-59
2022/05/11 05:05:43;;;;;;;5.93;1.88;;;;;;;;;;2064691;28;20058;-59
2022/05/11 05:06:44;;;;;;;4.00;1.95;;;;;;;;;;2064716;28;20137;-59
2022/05/11 05:07:45;;;;;;;5.40;2.40;;;;;;;;;;2064769;28;20054;-59
2022/05/11 05:08:46;;;;;;;8.55;2.30;;;;;;;;;;2064867;28;20076;-60
2022/05/11 05:09:48;;;;;;;8.37;2.40;;;;;;;;;;2064728;28;20060;-60
2022/05/11 05:10:48;;;;;;;3.28;1.48;;;;;;;;;;2064870;28;20138;-59
2022/05/11 05:11:50;;;;;;;3.20;1.97;;;;;;;;;;2064800;28;20484;-59
2022/05/11 05:12:51;;;;;;;4.88;1.92;;;;;;;;;;2064859;28;20125;-59
2022/05/11 05:13:53;;;;;;;6.03;2.25;;;;;;;;;;2064613;28;20054;-59
2022/05/11 05:14:54;;;;;;;3.03;1.65;;;;;;;;;;2064628;28;20484;-59
2022/05/11 05:15:56;;;;;;;5.25;2.08;;;;;;;;;;2064803;28;20128;-59
2022/05/11 05:17:00;;;;;;;4.28;2.15;;;;;;;;;;2064624;28;20050;-59
2022/05/11 05:18:01;;;;;;;6.85;2.17;;;;;;;;;;2064856;28;20068;-59
2022/05/11 05:19:02;;;;;;;4.05;2.10;;;;;;;;;;2058671;28;20097;-59
2022/05/11 05:20:05;;;;;;;3.70;1.88;;;;;;;;;;2056768;28;20081;-59
2022/05/11 05:21:06;;;;;;;5.45;2.03;;;;;;;;;;2056510;28;20133;-60
2022/05/11 05:22:07;;;;;;;4.38;1.88;;;;;;;;;;2056888;28;20173;-60
2022/05/11 05:23:08;;;;;;;2.97;1.75;;;;;;;;;;2056556;28;20133;-60
2022/05/11 05:24:09;;;;;;;5.77;2.00;;;;;;;;;;2056530;28;20042;-59
2022/05/11 05:25:10;;;;;;;4.22;1.85;;;;;;;;;;2056851;28;20181;-47
2022/05/11 05:26:12;;;;;;;5.95;1.65;;;;;;;;;;2056720;28;20051;-47
2022/05/11 05:27:14;;;;;;;5.43;2.03;;;;;;;;;;2056580;28;20489;-48
2022/05/11 05:31:06;;;;;;;2.72;1.58;;;;;;;;;;2056696;28;20130;-60
2022/05/11 05:32:08;;;;;;;7.60;2.00;;;;;;;;;;2056621;28;20057;-60
2022/05/11 05:33:09;;;;;;;3.25;1.70;;;;;;;;;;2056677;28;20049;-60
2022/05/11 05:34:11;;;;;;;4.50;2.00;;;;;;;;;;2056505;28;20137;-59
2022/05/11 05:35:15;;;;;;;3.25;1.58;;;;;;;;;;2056529;28;20043;-60
2022/05/11 05:36:16;;;;;;;3.03;1.60;;;;;;;;;;2056472;28;20141;-60
2022/05/11 05:37:17;;;;;;;4.73;1.90;;;;;;;;;;2056486;28;20074;-60
2022/05/11 05:38:18;;;;;;;4.78;1.40;;;;;;;;;;2056566;28;20130;-60
2022/05/11 05:39:19;;;;;;;3.80;1.80;;;;;;;;;;2056396;28;20050;-59
2022/05/11 05:40:21;;;;;;;3.28;1.60;;;;;;;;;;2056554;28;20130;-60
2022/05/11 05:41:22;;;;;;;5.50;1.88;;;;;;;;;;2056471;28;20408;-60
2022/05/11 05:42:24;;;;;;;3.35;1.38;;;;;;;;;;2056569;28;20047;-60
2022/05/11 05:43:25;;;;;;;3.53;1.88;;;;;;;;;;2056569;28;20050;-60
2022/05/11 05:44:31;;;;;;;3.60;1.58;;;;;;;;;;2056528;28;20043;-59
2022/05/11 05:45:31;;;;;;;3.72;1.60;;;;;;;;;;2056572;28;20129;-60
2022/05/11 05:46:33;;;;;;;2.70;1.47;;;;;;;;;;2056454;28;20074;-59
2022/05/11 05:47:36;;;;;;;3.28;1.23;;;;;;;;;;2056556;28;20051;-60
2022/05/11 05:48:37;;;;;;;4.20;1.38;;;;;;;;;;2056602;28;20070;-47
2022/05/11 05:49:39;;;;;;;3.47;1.42;;;;;;;;;;2056485;28;20130;-49
2022/05/11 05:50:40;;;;;;;4.10;1.70;;;;;;;;;;2056846;28;20129;-50
2022/05/11 05:51:42;;;;;;;1.77;1.20;;;;;;;;;;2058586;28;20090;-48
2022/05/11 05:52:45;;;;;;;2.78;1.63;;;;;;;;;;2061850;28;20406;-59
2022/05/11 05:53:46;;;;;;;4.05;1.50;;;;;;;;;;2067194;28;20141;-60
2022/05/11 05:54:47;;;;;;;3.58;1.80;;;;;;;;;;2067262;28;20046;-60
2022/05/11 05:55:49;;;;;;;3.60;1.33;;;;;;;;;;2067205;28;20493;-60
2022/05/11 05:56:50;;;;;;;4.68;1.80;;;;;;;;;;2067162;28;20053;-60
2022/05/11 05:57:51;;;;;;;3.60;1.40;;;;;;;;;;2067314;28;20053;-60
2022/05/11 05:59:03;;;;;;;3.85;1.75;;;;;;;;;;2067103;28;20057;-59
2022/05/11 06:00:05;;;;;;;2.60;1.33;;;;;;;;;;2067133;28;20058;-60
2022/05/11 06:01:06;;;;;;;3.58;1.35;;;;;;;;;;2067044;28;20129;-60
2022/05/11 06:02:12;;;;;;;3.47;1.20;;;;;;;;;;2067043;28;20074;-59
2022/05/11 06:03:18;;;;;;;3.75;1.60;;;;;;;;;;2067175;28;20280;-60
2022/05/11 06:04:20;;;;;;;1.88;1.23;;;;;;;;;;2067271;28;20085;-48
2022/05/11 06:05:20;;;;;;;1.77;1.02;;;;;;;;;;2067087;28;20078;-48
2022/05/11 06:06:22;;;;;;;4.20;1.27;;;;;;;;;;2067214;28;20047;-48
2022/05/11 06:07:23;;;;;;;2.90;1.30;;;;;;;;;;2067166;28;20054;-48
2022/05/11 06:08:24;;;;;;;2.87;1.43;;;;;;;;;;2060926;28;20047;-60
2022/05/11 06:09:25;;;;;;;2.67;1.30;;;;;;;;;;2059048;28;20055;-60
2022/05/11 06:10:26;;;;;;;1.43;1.00;;;;;;;;;;2059029;28;20052;-60
2022/05/11 06:11:28;;;;;;;2.13;1.20;;;;;;;;;;2059154;28;20122;-60
2022/05/11 06:12:29;;;;;;;2.28;1.10;;;;;;;;;;2059079;28;20567;-60
2022/05/11 06:13:30;;;;;;;3.10;1.10;;;;;;;;;;2059179;28;20074;-60
2022/05/11 06:14:31;;;;;;;4.90;1.50;;;;;;;;;;2059180;28;20051;-60
2022/05/11 06:15:32;;;;;;;3.97;1.60;;;;;;;;;;2058987;28;20528;-60
2022/05/11 06:16:34;;;;;;;3.40;1.40;;;;;;;;;;2059025;28;20417;-60
2022/05/11 06:17:35;;;;;;;4.68;1.42;;;;;;;;;;2058991;28;20047;-60
2022/05/11 06:18:37;;;;;;;2.38;1.38;;;;;;;;;;2059167;28;20212;-48
2022/05/11 06:19:39;;;;;;;3.33;1.50;;;;;;;;;;2058938;28;20054;-50
2022/05/11 06:20:40;;;;;;;2.33;1.02;;;;;;;;;;2058992;28;20141;-48